アルジェ の空港の天気 - METARとTAF

ウアリ・ブーメディアン空港 ( DAAG / ALG ) - アルジェリア アルジェ
飛行場実況気象(Metar)
観測時間01/20 03:00 CET (01/20 02:00 UTC)
風向・風速不定 1m/s
視程10km以上
天気現象
少しの雲 雲底高度 610m
全天の4割程度の雲 雲底高度 2230m
気温3℃
湿度100%
気圧1014hPa
METARDAAG 200200Z VRB01KT 9999 FEW020 SCT073 03/03 Q1014
過去の天気等 Google飛行場航空写真 Wunderground天気予報

過去48時間のMETAR

飛行場予報(TAF)
発表時間: 1/20 00:00 CET (1/19 23:00 UTC)
予報対象時間: 20日1時 CET ~ 21日1時 CET
風向・風速南西 3m/s
視程10km以上
少しの雲 雲底高度 610m
全天の4割程度の雲 雲底高度 2440m
20日1時 CET ~ 20日7時 CET に 確率 30% で一時的に
少しの塔状積雲 雲底高度 700m
20日9時 CET ~ 20日19時 CET に一時的に
視程5000m
天気現象弱い雨
少しの積乱雲 雲底高度 790m
20日11時 CET ~ 20日17時 CET に 確率 30% で一時的に
風向・風速西 8m/s 瞬間風速 13m/s
視程3000m
天気現象弱い雷しゅう雨
全天の8割程度の雲 雲底高度 460m
全天の4割程度の積乱雲 雲底高度 790m
20日17時 CET ~ 20日20時 CET に徐々に
風向・風速西北西 6m/s
TAF DAAG 192300Z 2000/2024 22006KT 9999 FEW020 SCT080
PROB30 TEMPO 2000/2006 FEW023TCU
TEMPO 2008/2018 5000 -RA FEW026CB
PROB30 TEMPO 2010/2016 26015G25KT 3000 -TSSHRA BKN015 SCT026CB
BECMG 2016/2019 30012KT